Coosada, Alabama
Current Conditions -  °F | °C
As of 6:58 PM on Wednesday 22 Oct 2014 (Local Time) from KMXF Reporting Station
Clear Clear  
Wind Chill: 61°   Ceiling: Unl
Heat Index: 61°   Visibility: 10mi
Dew Point: 46°   Wind: 5mph
Humidity: 59%   Direction: 340°NNW
Pressure: 30.08"   Gusts: NA
Location:  32.5°N, 86.33°W
Report Text: KMXF 222358Z AUTO 34004KT 10SM CLR 16/08 A3008 RMK AO2 SLP189 T01610080 10222 20158 52006
Loading
Personal Weather Stations






























Interactive Weather Map
Tropical Storm Tracking
New forecast layout! Learn more

10-Day Weather Forecast

Advertisements
Track Severe Weather on mobile